AirNav   Jet Aviation Boston
 
 1103 users online  

38N Smyrna Airport
Smyrna, Delaware, USA

GOING TO SMYRNA?


FAA INFORMATION EFFECTIVE 29 MARCH 2018

Location

FAA Identifier: 38N
Lat/Long: 39-18-13.2000N / 075-35-01.7000W
39-18.220000N / 075-35.028333W
39.3036667 / -75.5838056
(estimated)
Elevation: 18 ft. / 5 m (estimated)
Variation: 11W (1985)
From city: 1 mile E of SMYRNA, DE
Time zone: UTC -4 (UTC -5 during Standard Time)
Zip code: 19977

Airport Operations

Airport use: Open to the public
Control tower: no
ARTCC: WASHINGTON CENTER
FSS: MILLVILLE FLIGHT SERVICE STATION
NOTAMs facility: MIV (NOTAM-D service available)
Attendance: IREG
Pattern altitude: 818 ft. MSL
Wind indicator: yes
Segmented circle: yes
Lights: ACTVT LIRL RWY 10/28 DUSK-2400 - CTAF.
Beacon: white-green (lighted land airport)

Airport Communications

CTAF/UNICOM: 122.8
WX AWOS-3 at EVY (15 nm NW): 132.325 (302-378-2063)

Nearby radio navigation aids

VOR radial/distance  VOR name  Freq  Var
ENOr333/5.3SMYRNA VORTAC111.4009W
DQOr187/22.5DUPONT VORTAC114.0010W
OODr223/23.8WOODSTOWN VORTAC112.8010W
PPMr119/28.9PHILLIPS VOR/DME108.4009W
VCNr254/31.8CEDAR LAKE VOR/DME115.2010W
ATRr339/34.3WATERLOO VOR/DME112.6009W
MXEr183/37.1MODENA VORTAC113.2009W
SIEr298/38.5SEA ISLE VORTAC114.8009W

 
NDB name  Hdg/Dist  Freq  Var  ID
RAINBOW263/21.936311WRNB .-. -. -...

Airport Services

Fuel available: 100LL MOGAS
Parking: hangars
Airframe service: NONE
Powerplant service: NONE
Bottled oxygen: NONE
Bulk oxygen: NONE

Runway Information

Runway 10/28

Dimensions: 2600 x 125 ft. / 792 x 38 m
Surface: turf, in good condition
ROLLING SURFACE.
Runway edge lights: low intensity
RUNWAY 10  RUNWAY 28
Latitude: 39-18.208833N39-18.230000N
Longitude: 075-35.303167W075-34.752500W
Gradient: 0.3%0.3%
Traffic pattern: leftleft
Runway end identifier lights: yesyes
Obstructions: 51 ft. trees, 1020 ft. from runway, 20:1 slope to clear75 ft. trees, 1257 ft. from runway, 17:1 slope to clear

Airport Ownership and Management from official FAA records

Ownership: Privately-owned
Owner: BARBARA JONES
305 WOODLAND BEACH RD
SMYRNA, DE 19977
Phone 302-653-8314
Manager: ROBERT JONES
305 WOODLAND BEACH RD
SMYRNA, DE 19977
Phone 302-653-8314

Airport Operational Statistics

Aircraft based on the field: 10
Single engine airplanes: 8
Gliders airplanes: 2
    
Aircraft operations: avg 44/week *
87% local general aviation
13% transient general aviation
* for 12-month period ending 30 November 2014

Additional Remarks

MIGRATORY WATER FOWL ON & INVOF ARPT OCT-FEB.

Instrument Procedures

There are no published instrument procedures at 38N.

Some nearby airports with instrument procedures:

33N - Delaware Airpark (5 nm S)
KDOV - Dover Air Force Base (12 nm SE)
KEVY - Summit Airport (15 nm NW)
58M - Claremont Airport (21 nm NW)
KILG - New Castle Airport (23 nm N)
 
Loc | Ops | Rwys | IFR | FBO | Links
Com | Nav | Svcs | Stats | Notes

AirNav Hotels Sweepstakes
 
Area around 38N (Smyrna Airport)
 
Road maps at: MapQuest Bing Google
 
Aerial photo
WARNING: Photo may not be current or correct
Aerial photo of 38N (Smyrna Airport)
Photo courtesy of FlyinPhilsPhotos.com
Taken in the Spring of 2010

Do you have a better or more recent aerial photo of Smyrna Airport that you would like to share? If so, please send us your photo.

 
Sectional chart

 
Airport distance calculator
Flying to Smyrna Airport? Find the distance to fly.

From to 38N

Sunrise and sunset
Times for 24-Apr-2018
 Local
(UTC-4)
 Zulu
(UTC)
Morning civil twilight05:4509:45
Sunrise06:1410:14
Sunset19:4723:47
Evening civil twilight20:1600:16

Current date and time
Zulu (UTC)  24-Apr-2018 12:47:42
Local (UTC-4)  24-Apr-2018 08:47:42
 
METAR
KDOV 
12nm SE 
241156Z AUTO 10009KT 10SM BKN200 12/08 A3034 RMK AO2A SLP277 T01220077 10122 20084 58000 $
KILG 
22nm N 
241151Z 11006KT 10SM CLR 10/04 A3036 RMK AO2 SLP281 T01000044 10100 20067 58001
KMIV 
24nm E 
241154Z AUTO 12007KT 10SM CLR 11/06 A3036 RMK AO2 SLP279 T01060061 10106 20017 50000
KAPG 
24nm NW 
231758Z 13006KT 10SM BKN200 20/01 A3042 RMK AO2A SLP304 T01980007 10199 20097 57010 $
TAF
KDOV 
12nm SE 
240800Z 2408/2514 12012KT 9999 BKN200 QNH3033INS BECMG 2409/2410 12012KT 9999 BKN020 OVC035 QNH3016INS BECMG 2420/2421 12012KT 6000 -RA OVC012 620759 QNH2997INS BECMG 2502/2503 12012KT 3200 -RA OVC008 WS015/14048KT QNH2974INS BECMG 2511/2512 14009KT 6000 -DZ OVC008 QNH2972INS TX14/2415Z TN09/2409Z
NOTAMs
Click for the latest NOTAMs
NOTAMs are issued by the DoD/FAA and will open in a separate window not controlled by AirNav.

 

 
 

FBO, Fuel Providers, and Aircraft Ground Support

  
 Business Name 
 
 Contact 
 
 Services / Description 
 
Fuel Prices
 
Comments
  
Smyrna Airport 302-653-8314
[email]
Aviation fuel, Aircraft parking (ramp or tiedown), Public telephone, Pilots lounge / snooze room, Restrooms

More info about Smyrna Airport
independent
100LL
AS $5.35 
 Updated 16-Apr-2018
 
   write
AS=Assisted/Self Service
Update Fuel Prices
 

Would you like to see your business listed on this page?

 If your business provides an interesting product or service to pilots, flight crews, aircraft, or users of the Smyrna Airport, you should consider listing it here.  To start the listing process, click on the button below
 
Add a business
 

Other Pages about Smyrna Airport

Update a link
 
Copyright © AirNav, LLC. All rights reserved. Privacy Policy  Contact